createdAt,value
2022-10-10T00:00:50.592Z,7.60
2022-10-10T00:03:18.556Z,7.72
2022-10-10T00:05:45.466Z,7.77
2022-10-10T00:08:12.248Z,8.01
2022-10-10T00:10:39.057Z,8.00
2022-10-10T00:13:06.423Z,8.00
2022-10-10T00:15:33.622Z,7.97
2022-10-10T00:18:00.367Z,7.89
2022-10-10T00:20:27.435Z,7.98
2022-10-10T00:22:55.022Z,7.90
2022-10-10T00:25:21.832Z,7.87
2022-10-10T00:27:48.655Z,7.97
2022-10-10T00:30:18.295Z,7.97
2022-10-10T00:32:45.280Z,7.98
2022-10-10T00:35:12.566Z,8.05
2022-10-10T00:37:39.502Z,8.06
2022-10-10T00:40:07.346Z,8.01
2022-10-10T00:42:34.549Z,7.95
2022-10-10T00:45:22.534Z,7.96
2022-10-10T00:47:51.370Z,7.95
2022-10-10T00:50:22.348Z,8.01
2022-10-10T00:52:49.829Z,8.00
2022-10-10T00:55:17.999Z,7.94
2022-10-10T00:57:45.471Z,7.91
2022-10-10T01:00:12.881Z,7.85
2022-10-10T01:02:39.704Z,7.84
2022-10-10T01:05:06.706Z,7.82
2022-10-10T01:07:33.852Z,7.87
2022-10-10T01:10:06.499Z,7.85
2022-10-10T01:12:36.037Z,7.84
2022-10-10T01:15:31.597Z,7.77
2022-10-10T01:18:01.067Z,7.75
2022-10-10T01:20:41.151Z,7.78
2022-10-10T01:23:29.134Z,7.67
2022-10-10T01:26:20.710Z,7.72
2022-10-10T01:29:30.132Z,7.61
2022-10-10T01:32:15.418Z,7.64
2022-10-10T01:35:01.778Z,7.58
2022-10-10T01:37:39.442Z,7.54
2022-10-10T01:40:16.497Z,7.52
2022-10-10T01:42:56.679Z,7.64
2022-10-10T01:45:24.320Z,7.60
2022-10-10T01:47:53.967Z,7.69
2022-10-10T01:50:24.109Z,7.65
2022-10-10T01:53:11.235Z,7.64
2022-10-10T01:56:06.291Z,7.61
2022-10-10T01:58:59.210Z,7.60
2022-10-10T02:02:04.730Z,7.61
2022-10-10T02:04:31.604Z,7.70
2022-10-10T02:07:39.029Z,7.61
2022-10-10T02:10:07.900Z,7.65
2022-10-10T02:12:36.217Z,7.67
2022-10-10T02:15:11.252Z,7.74
2022-10-10T02:17:39.901Z,7.73
2022-10-10T02:20:08.932Z,7.73
2022-10-10T02:22:38.775Z,7.83
2022-10-10T02:25:06.610Z,7.83
2022-10-10T02:27:58.158Z,7.83
2022-10-10T02:30:25.175Z,7.83
2022-10-10T02:32:56.500Z,7.80
2022-10-10T02:35:28.666Z,7.90
2022-10-10T02:37:55.978Z,7.71
2022-10-10T02:40:26.329Z,7.84
2022-10-10T02:42:56.224Z,7.83
2022-10-10T02:45:23.595Z,7.82
2022-10-10T02:47:51.176Z,7.85
2022-10-10T02:50:18.121Z,7.76
2022-10-10T02:52:44.912Z,7.77
2022-10-10T02:55:12.479Z,7.69
2022-10-10T02:57:39.351Z,7.71
2022-10-10T03:00:07.232Z,7.70
2022-10-10T03:02:33.989Z,7.73
2022-10-10T03:05:00.811Z,7.67
2022-10-10T03:07:27.605Z,7.63
2022-10-10T03:09:54.434Z,7.70
2022-10-10T03:12:21.264Z,7.73
2022-10-10T03:14:48.041Z,7.58
2022-10-10T03:17:14.951Z,7.55
2022-10-10T03:19:41.803Z,7.59
2022-10-10T03:22:08.641Z,7.63
2022-10-10T03:24:35.543Z,7.62
2022-10-10T03:27:02.322Z,7.66
2022-10-10T03:29:29.328Z,7.74
2022-10-10T03:31:56.070Z,7.67
2022-10-10T03:34:22.913Z,7.72
2022-10-10T03:36:49.720Z,7.74
2022-10-10T03:39:16.509Z,7.63
2022-10-10T03:41:43.545Z,7.74
2022-10-10T03:44:10.293Z,7.73
2022-10-10T03:46:37.093Z,7.70
2022-10-10T03:49:03.872Z,7.63
2022-10-10T03:51:30.707Z,7.68
2022-10-10T03:53:57.561Z,7.64
2022-10-10T03:56:25.036Z,7.62
2022-10-10T03:58:51.846Z,7.61
2022-10-10T04:01:18.686Z,7.55
2022-10-10T04:03:49.924Z,7.50
2022-10-10T04:06:19.483Z,7.48
2022-10-10T04:08:46.313Z,7.50
2022-10-10T04:11:13.414Z,7.44
2022-10-10T04:13:40.211Z,7.47
2022-10-10T04:16:07.032Z,7.40
2022-10-10T04:18:33.907Z,7.37
2022-10-10T04:21:07.215Z,7.34
2022-10-10T04:23:34.130Z,7.29
2022-10-10T04:26:00.870Z,7.17
2022-10-10T04:28:28.105Z,7.17
2022-10-10T04:30:56.649Z,7.19
2022-10-10T04:33:23.624Z,7.07
2022-10-10T04:35:50.646Z,7.15
2022-10-10T04:38:18.410Z,7.07
2022-10-10T04:40:45.272Z,7.10
2022-10-10T04:43:12.025Z,7.06
2022-10-10T04:45:39.090Z,7.02
2022-10-10T04:48:05.869Z,7.02
2022-10-10T04:50:33.234Z,6.95
2022-10-10T04:52:59.997Z,6.89
2022-10-10T04:55:26.795Z,6.92
2022-10-10T04:57:53.912Z,6.88
2022-10-10T05:00:20.992Z,6.87
2022-10-10T05:02:48.080Z,6.81
2022-10-10T05:05:15.213Z,6.79
2022-10-10T05:07:41.953Z,6.74
2022-10-10T05:10:09.215Z,6.70
2022-10-10T05:12:35.988Z,6.72
2022-10-10T05:15:02.745Z,6.69
2022-10-10T05:17:29.458Z,6.67
2022-10-10T05:19:56.253Z,6.67
2022-10-10T05:22:23.061Z,6.65
2022-10-10T05:24:50.088Z,6.65
2022-10-10T05:27:16.893Z,6.62
2022-10-10T05:29:43.655Z,6.60
2022-10-10T05:32:10.771Z,6.56
2022-10-10T05:34:38.441Z,6.55
2022-10-10T05:37:05.503Z,6.57
2022-10-10T05:39:32.453Z,6.56
2022-10-10T05:41:59.565Z,6.53
2022-10-10T05:44:26.520Z,6.58
2022-10-10T05:46:53.290Z,6.58
2022-10-10T05:49:20.258Z,6.61
2022-10-10T05:51:47.504Z,6.62
2022-10-10T05:54:14.323Z,6.53
2022-10-10T05:56:41.952Z,6.53
2022-10-10T05:59:08.796Z,6.54
2022-10-10T06:01:37.032Z,6.53
2022-10-10T06:04:03.955Z,6.63
2022-10-10T06:06:30.855Z,6.65
2022-10-10T06:08:59.007Z,6.64
2022-10-10T06:11:26.711Z,6.67
2022-10-10T06:13:57.324Z,6.77
2022-10-10T06:16:27.966Z,6.76
2022-10-10T06:18:57.159Z,6.80
2022-10-10T06:21:25.199Z,6.88
2022-10-10T06:23:52.345Z,6.87
2022-10-10T06:26:19.090Z,6.87
2022-10-10T06:28:46.444Z,6.97
2022-10-10T06:31:14.422Z,7.00
2022-10-10T06:33:45.672Z,7.05
2022-10-10T06:36:14.314Z,7.14
2022-10-10T06:38:45.508Z,7.16
2022-10-10T06:41:13.153Z,7.11
2022-10-10T06:43:41.416Z,7.21
2022-10-10T06:46:08.368Z,7.27
2022-10-10T06:48:35.765Z,7.33
2022-10-10T06:51:06.187Z,7.41
2022-10-10T06:53:33.672Z,7.46
2022-10-10T06:56:00.997Z,7.54
2022-10-10T06:58:29.617Z,7.56
2022-10-10T07:00:59.629Z,7.63
2022-10-10T07:03:28.503Z,7.67
2022-10-10T07:05:58.353Z,7.83
2022-10-10T07:08:25.854Z,7.90
2022-10-10T07:10:52.866Z,7.98
2022-10-10T07:13:20.295Z,8.11
2022-10-10T07:15:47.275Z,8.16
2022-10-10T07:18:14.419Z,8.36
2022-10-10T07:20:41.847Z,8.38
2022-10-10T07:23:08.651Z,8.62
2022-10-10T07:25:38.357Z,8.90
2022-10-10T07:28:06.269Z,9.03
2022-10-10T07:30:33.683Z,9.25
2022-10-10T07:33:00.570Z,9.30
2022-10-10T07:35:27.630Z,9.43
2022-10-10T07:37:56.062Z,9.51
2022-10-10T07:40:23.764Z,9.56
2022-10-10T07:42:50.967Z,9.65
2022-10-10T07:45:18.363Z,9.74
2022-10-10T07:47:45.328Z,9.88
2022-10-10T07:50:13.069Z,10.05
2022-10-10T07:52:40.653Z,10.15
2022-10-10T07:55:08.818Z,10.17
2022-10-10T07:57:35.944Z,10.18
2022-10-10T08:00:09.475Z,10.18
2022-10-10T08:02:39.356Z,10.28
2022-10-10T08:05:06.613Z,10.32
2022-10-10T08:07:33.426Z,10.35
2022-10-10T08:10:02.385Z,10.56
2022-10-10T08:12:29.416Z,10.79
2022-10-10T08:14:56.275Z,11.14
2022-10-10T08:17:22.981Z,11.58
2022-10-10T08:19:49.808Z,12.27
2022-10-10T08:22:16.607Z,13.04
2022-10-10T08:24:43.424Z,13.68
2022-10-10T08:27:10.253Z,14.36
2022-10-10T08:29:38.025Z,14.31
2022-10-10T08:32:04.846Z,14.28
2022-10-10T08:34:31.693Z,14.11
2022-10-10T08:36:58.579Z,14.36
2022-10-10T08:39:25.625Z,15.32
2022-10-10T08:41:56.845Z,16.20
2022-10-10T08:44:53.008Z,16.92
2022-10-10T08:47:45.216Z,16.42
2022-10-10T08:50:20.033Z,17.16
2022-10-10T08:53:01.581Z,17.53
2022-10-10T08:55:32.275Z,17.38
2022-10-10T08:58:11.457Z,17.53
2022-10-10T09:00:43.341Z,17.57
2022-10-10T09:03:48.702Z,17.12
2022-10-10T09:06:39.698Z,18.02
2022-10-10T09:09:15.440Z,18.72
2022-10-10T09:12:13.153Z,18.90
2022-10-10T09:14:46.602Z,19.12
2022-10-10T09:17:54.551Z,19.09
2022-10-10T09:20:35.406Z,19.26
2022-10-10T09:23:12.206Z,18.79
2022-10-10T09:25:51.001Z,19.19
2022-10-10T09:28:26.921Z,19.47
2022-10-10T09:30:57.680Z,20.08
2022-10-10T09:33:33.851Z,20.13
2022-10-10T09:36:05.406Z,19.83
2022-10-10T09:38:38.885Z,19.89
2022-10-10T09:41:25.525Z,20.13
2022-10-10T09:43:58.632Z,19.61
2022-10-10T09:46:26.775Z,19.50
2022-10-10T09:48:55.188Z,19.40
2022-10-10T09:51:22.375Z,19.48
2022-10-10T09:53:50.201Z,19.38
2022-10-10T09:56:27.194Z,19.13
2022-10-10T09:58:55.996Z,19.16
2022-10-10T10:01:25.837Z,19.09
2022-10-10T10:04:29.783Z,19.70
2022-10-10T10:07:06.260Z,20.10
2022-10-10T10:09:33.746Z,20.61
2022-10-10T10:12:00.659Z,21.49
2022-10-10T10:14:36.626Z,22.09
2022-10-10T10:17:09.774Z,22.51
2022-10-10T10:19:42.558Z,23.04
2022-10-10T10:22:34.358Z,21.91
2022-10-10T10:25:31.708Z,21.45
2022-10-10T10:28:31.516Z,20.46
2022-10-10T10:30:59.436Z,20.19
2022-10-10T10:33:33.148Z,21.03
2022-10-10T10:36:19.197Z,21.96
2022-10-10T10:38:52.123Z,21.76
2022-10-10T10:41:43.028Z,20.90
2022-10-10T10:44:23.348Z,20.08
2022-10-10T10:47:25.115Z,21.25
2022-10-10T10:50:00.905Z,20.61
2022-10-10T10:52:37.034Z,19.93
2022-10-10T10:55:33.141Z,19.81
2022-10-10T10:59:04.884Z,21.49
2022-10-10T11:01:44.809Z,23.62
2022-10-10T11:05:20.346Z,23.25
2022-10-10T11:07:20.033Z,22.43
2022-10-10T11:09:51.847Z,22.15
2022-10-10T11:12:57.124Z,21.99
2022-10-10T11:15:54.185Z,21.32
2022-10-10T11:18:27.853Z,21.35
2022-10-10T11:21:24.785Z,20.28
2022-10-10T11:23:56.501Z,19.70
2022-10-10T11:26:38.242Z,19.16
2022-10-10T11:29:20.024Z,18.67
2022-10-10T11:32:15.088Z,18.58
2022-10-10T11:34:50.510Z,18.25
2022-10-10T11:37:24.578Z,17.91
2022-10-10T11:39:59.880Z,17.55
2022-10-10T11:42:37.517Z,17.24
2022-10-10T11:45:24.240Z,17.15
2022-10-10T11:48:04.151Z,16.82
2022-10-10T11:50:39.418Z,16.65
2022-10-10T11:53:31.142Z,16.36
2022-10-10T11:56:37.309Z,16.13
2022-10-10T11:59:22.051Z,15.95
2022-10-10T12:01:54.009Z,15.82
2022-10-10T12:04:22.514Z,15.81
2022-10-10T12:06:55.346Z,15.80
2022-10-10T12:09:33.466Z,15.77
2022-10-10T12:12:13.509Z,15.92
2022-10-10T12:14:48.148Z,15.89
2022-10-10T12:17:21.497Z,15.96
2022-10-10T12:19:50.946Z,15.75
2022-10-10T12:22:29.788Z,15.84
2022-10-10T12:25:18.426Z,15.76
2022-10-10T12:27:49.220Z,15.76
2022-10-10T12:30:20.427Z,15.75
2022-10-10T12:32:48.000Z,15.78
2022-10-10T12:35:28.412Z,15.73
2022-10-10T12:38:15.282Z,15.78
2022-10-10T12:40:57.368Z,15.75
2022-10-10T12:43:36.222Z,15.76
2022-10-10T12:46:22.537Z,15.44
2022-10-10T12:49:25.227Z,15.16
2022-10-10T12:52:20.980Z,15.11
2022-10-10T12:54:50.047Z,14.92
2022-10-10T12:57:33.336Z,14.48
2022-10-10T13:00:18.039Z,14.23
2022-10-10T13:02:48.423Z,14.18
2022-10-10T13:05:20.701Z,14.17
2022-10-10T13:07:50.184Z,14.14
2022-10-10T13:10:27.229Z,14.10
2022-10-10T13:13:16.501Z,13.94
2022-10-10T13:15:58.172Z,13.96
2022-10-10T13:18:39.721Z,13.94
2022-10-10T13:21:13.091Z,13.91
2022-10-10T13:26:38.866Z,13.73
2022-10-10T13:29:18.432Z,13.73
2022-10-10T13:31:45.516Z,13.63
2022-10-10T13:34:17.389Z,13.62
2022-10-10T13:36:45.614Z,13.49
2022-10-10T13:39:16.805Z,13.38
2022-10-10T13:41:47.943Z,13.29
2022-10-10T13:44:20.662Z,13.16
2022-10-10T13:46:47.556Z,12.85
2022-10-10T13:49:28.882Z,12.74
2022-10-10T13:52:20.084Z,12.57
2022-10-10T13:54:48.613Z,12.40
2022-10-10T13:57:26.380Z,12.37
2022-10-10T14:00:02.766Z,12.29
2022-10-10T14:02:36.324Z,12.08
2022-10-10T14:05:09.337Z,12.02
2022-10-10T14:07:36.678Z,12.06
2022-10-10T14:10:09.109Z,11.96
2022-10-10T14:12:44.056Z,12.12
2022-10-10T14:15:42.770Z,12.22
2022-10-10T14:18:22.136Z,12.18
2022-10-10T14:20:49.790Z,12.15
2022-10-10T14:23:17.382Z,12.22
2022-10-10T14:25:46.812Z,12.26
2022-10-10T14:28:21.002Z,12.43
2022-10-10T14:30:48.243Z,12.58
2022-10-10T14:33:17.985Z,12.89
2022-10-10T14:35:46.307Z,13.03
2022-10-10T14:38:14.120Z,13.40
2022-10-10T14:40:46.980Z,13.70
2022-10-10T14:43:14.129Z,13.90
2022-10-10T14:45:40.919Z,14.08
2022-10-10T14:48:07.777Z,14.31
2022-10-10T14:50:37.289Z,14.65
2022-10-10T14:53:04.946Z,14.67
2022-10-10T14:55:31.838Z,14.77
2022-10-10T14:57:58.605Z,15.82
2022-10-10T15:00:27.359Z,15.14
2022-10-10T15:02:54.187Z,15.01
2022-10-10T15:05:21.041Z,15.17
2022-10-10T15:07:50.419Z,15.55
2022-10-10T15:10:34.382Z,18.16
2022-10-10T15:13:03.139Z,20.34
2022-10-10T15:15:30.472Z,19.85
2022-10-10T15:17:58.335Z,19.83
2022-10-10T15:20:30.915Z,19.12
2022-10-10T15:22:59.858Z,18.32
2022-10-10T15:25:33.142Z,18.86
2022-10-10T15:28:04.571Z,18.38
2022-10-10T15:30:31.473Z,16.33
2022-10-10T15:32:58.446Z,15.34
2022-10-10T15:35:26.242Z,14.52
2022-10-10T15:37:53.434Z,14.32
2022-10-10T15:40:23.612Z,14.07
2022-10-10T15:42:51.073Z,13.62
2022-10-10T15:45:43.579Z,13.37
2022-10-10T15:48:05.954Z,13.21
2022-10-10T15:50:36.027Z,12.80
2022-10-10T15:53:03.006Z,12.76
2022-10-10T15:55:29.996Z,12.78
2022-10-10T15:57:56.876Z,12.77
2022-10-10T16:00:23.939Z,12.71
2022-10-10T16:02:50.782Z,12.63
2022-10-10T16:05:17.717Z,12.68
2022-10-10T16:07:48.345Z,12.77
2022-10-10T16:10:16.195Z,12.78
2022-10-10T16:12:43.276Z,12.78
2022-10-10T16:15:10.276Z,12.60
2022-10-10T16:17:37.040Z,12.36
2022-10-10T16:20:04.504Z,12.19
2022-10-10T16:22:31.587Z,11.96
2022-10-10T16:25:17.692Z,11.78
2022-10-10T16:27:45.394Z,11.49
2022-10-10T16:30:12.512Z,11.36
2022-10-10T16:32:42.406Z,11.27
2022-10-10T16:35:10.678Z,11.16
2022-10-10T16:37:38.173Z,11.08
2022-10-10T16:40:05.720Z,11.04
2022-10-10T16:42:32.724Z,11.00
2022-10-10T16:44:59.615Z,10.94
2022-10-10T16:47:26.411Z,10.86
2022-10-10T16:49:53.184Z,10.74
2022-10-10T16:52:20.003Z,10.65
2022-10-10T16:54:51.131Z,10.57
2022-10-10T16:57:18.850Z,10.49
2022-10-10T16:59:45.798Z,10.38
2022-10-10T17:02:13.101Z,10.35
2022-10-10T17:04:39.873Z,10.37
2022-10-10T17:07:06.720Z,10.36
2022-10-10T17:09:33.748Z,10.29
2022-10-10T17:12:00.504Z,10.18
2022-10-10T17:14:27.262Z,10.01
2022-10-10T17:19:40.971Z,9.93
2022-10-10T17:22:07.986Z,9.87
2022-10-10T17:24:35.931Z,9.78
2022-10-10T17:27:02.703Z,9.67
2022-10-10T17:29:29.472Z,9.62
2022-10-10T17:31:56.245Z,9.62
2022-10-10T17:34:23.262Z,9.68
2022-10-10T17:36:50.085Z,9.66
2022-10-10T17:39:16.990Z,9.79
2022-10-10T17:41:45.920Z,9.77
2022-10-10T17:44:24.044Z,9.72
2022-10-10T17:46:50.794Z,9.77
2022-10-10T17:49:19.421Z,9.75
2022-10-10T17:51:46.238Z,9.78
2022-10-10T17:54:13.561Z,9.74
2022-10-10T17:56:44.735Z,9.66
2022-10-10T17:59:12.336Z,9.60
2022-10-10T18:01:40.012Z,9.49
2022-10-10T18:04:07.564Z,9.40
2022-10-10T18:06:37.136Z,9.32
2022-10-10T18:09:04.187Z,9.26
2022-10-10T18:11:31.810Z,9.25
2022-10-10T18:14:01.758Z,9.18
2022-10-10T18:16:33.980Z,9.12
2022-10-10T18:19:03.404Z,9.12
2022-10-10T18:21:30.306Z,9.10
2022-10-10T18:23:57.166Z,8.95
2022-10-10T18:26:26.742Z,8.87
2022-10-10T18:28:55.540Z,8.92
2022-10-10T18:31:28.259Z,9.04
2022-10-10T18:33:55.692Z,9.03
2022-10-10T18:36:25.285Z,8.97
2022-10-10T18:38:52.513Z,8.91
2022-10-10T18:41:24.674Z,8.88
2022-10-10T18:43:52.098Z,8.81
2022-10-10T18:46:22.521Z,8.68
2022-10-10T18:48:53.712Z,8.56
2022-10-10T18:51:24.499Z,8.41
2022-10-10T18:53:58.597Z,8.27
2022-10-10T18:56:25.510Z,8.16
2022-10-10T18:58:55.375Z,8.06
2022-10-10T19:01:25.247Z,7.98
2022-10-10T19:03:54.211Z,7.97
2022-10-10T19:06:23.393Z,7.95
2022-10-10T19:08:58.799Z,7.86
2022-10-10T19:11:34.519Z,7.93
2022-10-10T19:14:04.228Z,7.93
2022-10-10T19:16:31.364Z,8.22
2022-10-10T19:18:59.439Z,8.41
2022-10-10T19:21:28.082Z,8.42
2022-10-10T19:23:55.426Z,8.35
2022-10-10T19:26:22.325Z,8.27
2022-10-10T19:28:49.258Z,8.19
2022-10-10T19:31:18.068Z,8.18
2022-10-10T19:33:45.728Z,8.16
2022-10-10T19:36:13.359Z,8.17
2022-10-10T19:38:41.960Z,8.24
2022-10-10T19:41:10.689Z,8.26
2022-10-10T19:43:37.428Z,8.29
2022-10-10T19:46:06.874Z,8.19
2022-10-10T19:48:34.966Z,8.22
2022-10-10T19:51:11.693Z,8.37
2022-10-10T19:53:39.859Z,8.42
2022-10-10T19:56:11.943Z,8.38
2022-10-10T19:58:39.504Z,8.40
2022-10-10T20:01:08.637Z,8.34
2022-10-10T20:03:35.495Z,8.30
2022-10-10T20:06:03.181Z,8.22
2022-10-10T20:08:30.785Z,8.18
2022-10-10T20:10:58.972Z,8.13
2022-10-10T20:13:25.813Z,8.04
2022-10-10T20:15:52.675Z,8.01
2022-10-10T20:18:21.922Z,7.99
2022-10-10T20:20:51.562Z,8.00
2022-10-10T20:23:21.541Z,8.13
2022-10-10T20:25:48.366Z,8.10
2022-10-10T20:28:18.375Z,8.05
2022-10-10T20:30:50.752Z,7.97
2022-10-10T20:33:19.456Z,7.94
2022-10-10T20:35:46.947Z,7.99
2022-10-10T20:38:16.269Z,8.07
2022-10-10T20:40:44.563Z,8.02
2022-10-10T20:43:12.270Z,8.03
2022-10-10T20:45:40.449Z,8.07
2022-10-10T20:48:08.198Z,8.12
2022-10-10T20:50:36.338Z,8.08
2022-10-10T20:53:03.540Z,8.03
2022-10-10T20:55:30.613Z,8.01
2022-10-10T20:57:57.360Z,8.00
2022-10-10T21:00:24.261Z,7.99
2022-10-10T21:02:51.166Z,8.02
2022-10-10T21:05:17.962Z,8.00
2022-10-10T21:07:45.982Z,8.03
2022-10-10T21:10:12.822Z,7.98
2022-10-10T21:12:39.641Z,7.92
2022-10-10T21:15:06.898Z,7.90
2022-10-10T21:17:33.687Z,7.82
2022-10-10T21:20:00.709Z,7.82
2022-10-10T21:22:27.533Z,7.86
2022-10-10T21:24:54.289Z,7.88
2022-10-10T21:27:21.066Z,7.88
2022-10-10T21:29:47.901Z,7.89
2022-10-10T21:32:14.642Z,7.88
2022-10-10T21:34:41.360Z,7.89
2022-10-10T21:37:08.173Z,7.95
2022-10-10T21:39:35.019Z,8.05
2022-10-10T21:42:02.427Z,8.08
2022-10-10T21:44:29.247Z,8.08
2022-10-10T21:46:56.002Z,8.11
2022-10-10T21:49:22.898Z,8.03
2022-10-10T21:51:50.146Z,7.97
2022-10-10T21:54:17.007Z,7.90
2022-10-10T21:56:43.803Z,7.88
2022-10-10T21:59:11.814Z,7.87
2022-10-10T22:01:38.561Z,7.84
2022-10-10T22:04:06.202Z,7.77
2022-10-10T22:06:33.126Z,7.67
2022-10-10T22:09:01.730Z,7.58
2022-10-10T22:11:30.657Z,7.48
2022-10-10T22:13:57.982Z,7.46
2022-10-10T22:16:24.845Z,7.48
2022-10-10T22:18:56.358Z,7.48
2022-10-10T22:21:28.032Z,7.46
2022-10-10T22:23:57.865Z,7.36
2022-10-10T22:26:24.625Z,7.35
2022-10-10T22:28:51.432Z,7.31
2022-10-10T22:31:19.046Z,7.27
2022-10-10T22:33:45.872Z,7.18
2022-10-10T22:36:12.907Z,7.11
2022-10-10T22:38:41.876Z,7.06
2022-10-10T22:41:09.426Z,7.02
2022-10-10T22:43:36.418Z,7.02
2022-10-10T22:46:04.169Z,7.06
2022-10-10T22:48:31.108Z,7.11
2022-10-10T22:51:03.276Z,7.09
2022-10-10T22:53:30.697Z,7.17
2022-10-10T22:55:57.703Z,7.16
2022-10-10T22:58:25.159Z,7.15
2022-10-10T23:00:52.697Z,7.20
2022-10-10T23:03:20.394Z,7.20
2022-10-10T23:05:47.185Z,7.11
2022-10-10T23:08:13.942Z,7.02
2022-10-10T23:10:40.982Z,6.89
2022-10-10T23:13:07.744Z,6.71
2022-10-10T23:15:34.447Z,6.58
2022-10-10T23:18:01.192Z,6.52
2022-10-10T23:20:28.084Z,6.42
2022-10-10T23:22:55.381Z,6.37
2022-10-10T23:25:22.510Z,6.32
2022-10-10T23:27:49.879Z,6.29
2022-10-10T23:30:17.119Z,6.30
2022-10-10T23:32:43.903Z,6.31
2022-10-10T23:35:11.265Z,6.47
2022-10-10T23:37:38.022Z,6.62
2022-10-10T23:40:05.346Z,6.68
2022-10-10T23:42:32.888Z,6.62
2022-10-10T23:44:59.646Z,6.61
2022-10-10T23:47:26.429Z,6.58
2022-10-10T23:49:53.250Z,6.62
2022-10-10T23:52:20.088Z,6.68
2022-10-10T23:54:46.866Z,6.68
2022-10-10T23:57:13.648Z,6.59
2022-10-10T23:59:40.336Z,6.56
